CNU4 weather

Belleville Airport
Belleville, Ontario, Canada

Public forecast

Using degrees Celsius for public forecast. Weather courtesy of forecast.io.

METAR (pilot weather report)

Closest report is CFB Trenton, 10.4 nm (19.3 km) WSW. Retrieved 2019/01/18 21:21 UTC (26 minutes ago):

CYTR 182121Z 29010G16KT 15SM BKN025 BKN180 M01/M06 A3006 RMK SC6AC2 PRESRR SLP186

TAF (pilot weather forecast)

Closest forecast is CFB Trenton, 10.4 nm (19.3 km) WSW. Retrieved 2019/01/18 18:33 UTC (3 hours ago):

TAF CYTR 181730Z 1818/1918 31005KT P6SM BKN040 BECMG 1818/1820 31010G20KT FM182300 33008KT P6SM SCT040 BKN200 BECMG 1904/1906 03008KT FM191000 03008KT P6SM OVC140 FM191300 03010KT 6SM -SN SCT030 OVC080 FM191500 03012KT 4SM -SN BKN030 OVC060 RMK NXT FCST BY 190000Z